createdAt,value
2019-05-18T00:00:10.363Z,34.80
2019-05-18T00:02:43.198Z,35.23
2019-05-18T00:05:12.089Z,34.95
2019-05-18T00:07:40.581Z,36.75
2019-05-18T00:10:09.448Z,36.53
2019-05-18T00:12:38.075Z,37.53
2019-05-18T00:15:07.632Z,35.52
2019-05-18T00:17:36.104Z,35.35
2019-05-18T00:20:09.419Z,35.20
2019-05-18T00:22:37.842Z,36.42
2019-05-18T00:25:07.339Z,37.17
2019-05-18T00:27:39.991Z,37.45
2019-05-18T00:30:12.867Z,39.15
2019-05-18T00:32:41.293Z,37.58
2019-05-18T00:35:09.940Z,35.88
2019-05-18T00:37:42.399Z,37.73
2019-05-18T00:40:13.943Z,39.03
2019-05-18T00:42:42.409Z,39.07
2019-05-18T00:45:13.868Z,37.75
2019-05-18T00:47:42.751Z,39.73
2019-05-18T00:50:11.745Z,38.30
2019-05-18T00:52:40.240Z,36.40
2019-05-18T00:55:09.306Z,36.30
2019-05-18T00:57:37.833Z,35.80
2019-05-18T01:00:10.639Z,37.87
2019-05-18T01:02:41.573Z,37.65
2019-05-18T01:05:11.229Z,37.50
2019-05-18T01:07:39.712Z,37.93
2019-05-18T01:10:11.051Z,36.93
2019-05-18T01:12:39.659Z,37.13
2019-05-18T01:15:10.238Z,39.45
2019-05-18T01:17:38.640Z,38.48
2019-05-18T01:20:07.535Z,38.00
2019-05-18T01:22:35.952Z,39.33
2019-05-18T01:25:05.145Z,39.17
2019-05-18T01:27:36.103Z,41.37
2019-05-18T01:30:07.352Z,38.90
2019-05-18T01:32:38.188Z,38.85
2019-05-18T01:35:12.179Z,39.95
2019-05-18T01:37:43.334Z,38.02
2019-05-18T01:40:14.979Z,39.93
2019-05-18T01:42:44.482Z,40.60
2019-05-18T01:45:17.611Z,38.60
2019-05-18T01:47:43.424Z,39.42
2019-05-18T01:50:13.422Z,38.25
2019-05-18T01:52:45.884Z,40.65
2019-05-18T01:57:43.555Z,37.90
2019-05-18T02:00:12.728Z,39.70
2019-05-18T02:02:41.158Z,38.80
2019-05-18T02:05:11.725Z,38.83
2019-05-18T02:07:40.144Z,39.78
2019-05-18T02:10:10.883Z,39.30
2019-05-18T02:12:42.980Z,39.48
2019-05-18T02:15:12.076Z,39.53
2019-05-18T02:17:42.924Z,39.23
2019-05-18T02:20:11.951Z,40.65
2019-05-18T02:22:40.374Z,39.27
2019-05-18T02:25:10.271Z,41.15
2019-05-18T02:27:38.759Z,38.95
2019-05-18T02:30:17.936Z,37.50
2019-05-18T02:32:41.993Z,38.42
2019-05-18T02:35:10.758Z,40.23
2019-05-18T02:37:39.173Z,39.85
2019-05-18T02:40:10.349Z,37.88
2019-05-18T02:42:42.244Z,41.37
2019-05-18T02:45:10.861Z,38.37
2019-05-18T02:47:44.827Z,41.13
2019-05-18T02:50:13.516Z,39.35
2019-05-18T02:52:41.991Z,38.40
2019-05-18T02:55:11.062Z,40.60
2019-05-18T02:57:39.495Z,38.88
2019-05-18T03:00:11.348Z,40.33
2019-05-18T03:02:39.761Z,38.08
2019-05-18T03:05:08.746Z,39.85
2019-05-18T03:07:38.254Z,39.42
2019-05-18T03:10:07.685Z,38.08
2019-05-18T03:12:39.998Z,38.50
2019-05-18T03:15:09.573Z,39.63
2019-05-18T03:17:40.702Z,38.02
2019-05-18T03:20:12.840Z,41.68
2019-05-18T03:22:42.358Z,40.12
2019-05-18T03:25:11.453Z,42.15
2019-05-18T03:27:42.255Z,41.18
2019-05-18T03:30:11.227Z,42.40
2019-05-18T03:32:39.673Z,40.78
2019-05-18T03:35:08.336Z,40.65
2019-05-18T03:37:36.846Z,40.08
2019-05-18T03:40:11.660Z,40.03
2019-05-18T03:42:42.011Z,39.60
2019-05-18T03:45:10.764Z,40.45
2019-05-18T03:47:45.670Z,41.18
2019-05-18T03:50:14.154Z,40.90
2019-05-18T03:52:45.688Z,42.20
2019-05-18T03:55:14.349Z,43.87
2019-05-18T03:57:46.491Z,42.90
2019-05-18T04:00:15.554Z,42.98
2019-05-18T04:02:43.947Z,46.02
2019-05-18T04:05:12.570Z,43.80
2019-05-18T04:07:43.503Z,46.15
2019-05-18T04:10:17.874Z,43.53
2019-05-18T04:12:46.315Z,43.13
2019-05-18T04:15:25.851Z,40.20
2019-05-18T04:17:54.326Z,42.75
2019-05-18T04:20:22.755Z,42.78
2019-05-18T04:22:51.182Z,42.03
2019-05-18T04:25:19.613Z,40.85
2019-05-18T04:27:48.033Z,39.45
2019-05-18T04:30:16.909Z,40.38
2019-05-18T04:32:47.978Z,41.48
2019-05-18T04:35:17.510Z,38.67
2019-05-18T04:37:48.276Z,38.35
2019-05-18T04:40:17.727Z,41.08
2019-05-18T04:42:46.118Z,37.10
2019-05-18T04:45:17.694Z,37.13
2019-05-18T04:47:48.869Z,36.88
2019-05-18T04:50:17.810Z,34.53
2019-05-18T04:52:46.240Z,38.13
2019-05-18T04:55:17.453Z,36.30
2019-05-18T04:57:46.933Z,34.13
2019-05-18T05:00:16.978Z,33.53
2019-05-18T05:02:45.443Z,33.02
2019-05-18T05:05:14.010Z,33.75
2019-05-18T05:07:45.116Z,34.45
2019-05-18T05:10:20.052Z,34.20
2019-05-18T05:12:48.477Z,34.18
2019-05-18T05:15:18.239Z,32.13
2019-05-18T05:17:49.381Z,31.25
2019-05-18T05:20:20.125Z,31.85
2019-05-18T05:22:49.037Z,32.85
2019-05-18T05:25:23.882Z,32.53
2019-05-18T05:27:52.292Z,31.85
2019-05-18T05:30:20.748Z,33.05
2019-05-18T05:32:52.948Z,32.83
2019-05-18T05:35:21.346Z,31.05
2019-05-18T05:37:49.767Z,32.73
2019-05-18T05:40:21.236Z,31.10
2019-05-18T05:42:49.700Z,32.93
2019-05-18T05:45:18.320Z,31.00
2019-05-18T05:47:48.849Z,29.63
2019-05-18T05:50:18.463Z,31.57
2019-05-18T05:52:46.900Z,31.15
2019-05-18T05:55:16.275Z,30.15
2019-05-18T05:57:45.712Z,30.32
2019-05-18T06:00:15.249Z,31.57
2019-05-18T06:02:43.666Z,29.15
2019-05-18T06:05:14.844Z,26.52
2019-05-18T06:07:44.305Z,29.30
2019-05-18T06:10:13.178Z,29.55
2019-05-18T06:12:46.985Z,27.37
2019-05-18T06:15:20.728Z,25.80
2019-05-18T06:17:49.144Z,24.37
2019-05-18T06:20:18.649Z,25.30
2019-05-18T06:22:47.133Z,23.70
2019-05-18T06:25:15.535Z,23.10
2019-05-18T06:27:45.006Z,24.12
2019-05-18T06:30:17.525Z,23.20
2019-05-18T06:32:46.000Z,22.75
2019-05-18T06:35:14.540Z,23.92
2019-05-18T06:37:43.030Z,21.82
2019-05-18T06:40:12.137Z,21.25
2019-05-18T06:42:40.543Z,22.37
2019-05-18T06:45:11.270Z,22.30
2019-05-18T06:47:39.696Z,21.77
2019-05-18T06:50:12.817Z,22.13
2019-05-18T06:52:41.072Z,24.43
2019-05-18T06:55:13.360Z,23.38
2019-05-18T06:57:42.812Z,23.95
2019-05-18T07:00:17.542Z,25.43
2019-05-18T07:02:47.008Z,23.18
2019-05-18T07:05:21.914Z,23.83
2019-05-18T07:07:55.730Z,25.25
2019-05-18T07:10:23.526Z,23.42
2019-05-18T07:12:51.967Z,23.77
2019-05-18T07:15:20.652Z,21.37
2019-05-18T07:17:49.107Z,23.32
2019-05-18T07:20:21.718Z,22.65
2019-05-18T07:22:51.786Z,22.17
2019-05-18T07:25:24.494Z,23.15
2019-05-18T07:27:54.602Z,20.62
2019-05-18T07:30:23.017Z,20.77
2019-05-18T07:32:51.441Z,22.15
2019-05-18T07:35:28.859Z,24.30
2019-05-18T07:37:56.313Z,22.82
2019-05-18T07:40:24.746Z,22.50
2019-05-18T07:42:53.158Z,22.70
2019-05-18T07:45:21.598Z,22.67
2019-05-18T07:47:51.065Z,23.10
2019-05-18T07:50:22.967Z,24.90
2019-05-18T07:52:51.431Z,23.45
2019-05-18T07:55:19.399Z,23.73
2019-05-18T07:57:47.753Z,26.60
2019-05-18T08:00:16.852Z,26.90
2019-05-18T08:02:45.295Z,27.42
2019-05-18T08:05:14.138Z,26.10
2019-05-18T08:07:50.539Z,27.35
2019-05-18T08:10:39.135Z,25.30
2019-05-18T08:13:10.514Z,25.30
2019-05-18T08:15:40.121Z,25.60
2019-05-18T08:18:10.142Z,24.10
2019-05-18T08:20:38.556Z,26.30
2019-05-18T08:23:07.052Z,27.00
2019-05-18T08:25:37.573Z,26.23
2019-05-18T08:28:08.732Z,25.62
2019-05-18T08:30:37.212Z,24.60
2019-05-18T08:33:05.717Z,25.05
2019-05-18T08:35:34.150Z,26.00
2019-05-18T08:38:02.607Z,26.45
2019-05-18T08:40:32.060Z,25.12
2019-05-18T08:43:00.528Z,26.05
2019-05-18T08:45:29.122Z,26.50
2019-05-18T08:47:57.570Z,28.02
2019-05-18T08:50:27.110Z,27.15
2019-05-18T08:52:56.669Z,29.60
2019-05-18T08:55:29.216Z,27.70
2019-05-18T08:57:57.635Z,28.10
2019-05-18T09:00:26.121Z,28.30
2019-05-18T09:02:54.517Z,25.62
2019-05-18T09:05:23.097Z,24.95
2019-05-18T09:07:51.483Z,26.33
2019-05-18T09:10:20.283Z,26.00
2019-05-18T09:12:48.707Z,28.23
2019-05-18T09:15:17.766Z,28.30
2019-05-18T09:17:47.577Z,26.25
2019-05-18T09:20:19.112Z,30.30
2019-05-18T09:22:47.534Z,29.75
2019-05-18T09:25:16.304Z,28.80
2019-05-18T09:27:45.983Z,29.32
2019-05-18T09:30:16.016Z,27.27
2019-05-18T09:32:44.418Z,26.95
2019-05-18T09:35:16.034Z,26.00
2019-05-18T09:37:44.936Z,28.05
2019-05-18T09:40:13.647Z,30.37
2019-05-18T09:42:42.975Z,29.20
2019-05-18T09:45:12.526Z,30.47
2019-05-18T09:47:40.967Z,29.25
2019-05-18T09:50:10.493Z,28.60
2019-05-18T09:52:46.611Z,28.07
2019-05-18T09:55:09.279Z,29.77
2019-05-18T09:57:37.780Z,30.48
2019-05-18T10:00:11.869Z,29.50
2019-05-18T10:02:40.512Z,30.15
2019-05-18T10:05:09.321Z,28.05
2019-05-18T10:07:37.801Z,30.97
2019-05-18T10:10:07.993Z,31.73
2019-05-18T10:12:36.903Z,29.90
2019-05-18T10:15:09.287Z,29.90
2019-05-18T10:17:37.732Z,29.40
2019-05-18T10:20:10.728Z,30.60
2019-05-18T10:22:53.518Z,31.95
2019-05-18T10:25:10.725Z,28.35
2019-05-18T10:27:39.169Z,28.75
2019-05-18T10:30:09.214Z,30.92
2019-05-18T10:32:40.289Z,30.48
2019-05-18T10:35:09.187Z,30.97
2019-05-18T10:37:37.751Z,32.35
2019-05-18T10:40:09.010Z,33.13
2019-05-18T10:42:37.452Z,34.98
2019-05-18T10:45:07.808Z,32.53
2019-05-18T10:47:37.183Z,31.97
2019-05-18T10:50:09.614Z,29.25
2019-05-18T10:52:38.033Z,33.63
2019-05-18T10:55:11.784Z,29.53
2019-05-18T10:57:40.268Z,30.57
2019-05-18T11:03:06.082Z,30.23
2019-05-18T11:05:34.507Z,31.13
2019-05-18T11:08:06.965Z,30.95
2019-05-18T11:10:40.955Z,28.50
2019-05-18T11:13:09.397Z,30.77
2019-05-18T11:15:37.818Z,30.88
2019-05-18T11:18:08.995Z,28.35
2019-05-18T11:20:37.477Z,30.30
2019-05-18T11:23:05.896Z,29.63
2019-05-18T11:25:36.456Z,30.17
2019-05-18T11:28:06.812Z,30.17
2019-05-18T11:30:35.265Z,32.00
2019-05-18T11:33:07.308Z,29.25
2019-05-18T11:35:35.736Z,29.27
2019-05-18T11:38:04.332Z,30.82
2019-05-18T11:40:32.834Z,29.20
2019-05-18T11:43:01.291Z,30.55
2019-05-18T11:45:30.994Z,30.70
2019-05-18T11:47:59.435Z,29.63
2019-05-18T11:50:28.042Z,30.52
2019-05-18T11:52:56.408Z,28.85
2019-05-18T11:55:24.817Z,27.77
2019-05-18T11:57:54.155Z,29.48
2019-05-18T12:00:24.352Z,28.85
2019-05-18T12:02:52.810Z,29.18
2019-05-18T12:05:21.246Z,27.30
2019-05-18T12:07:49.657Z,30.08
2019-05-18T12:10:20.770Z,29.20
2019-05-18T12:12:49.285Z,27.98
2019-05-18T12:15:22.270Z,28.85
2019-05-18T12:17:50.761Z,29.95
2019-05-18T12:20:23.562Z,28.38
2019-05-18T12:22:52.013Z,27.05
2019-05-18T12:25:20.611Z,25.13
2019-05-18T12:27:50.034Z,23.22
2019-05-18T12:30:19.165Z,24.20
2019-05-18T12:32:47.581Z,22.58
2019-05-18T12:35:16.544Z,20.80
2019-05-18T12:37:45.906Z,25.60
2019-05-18T12:40:17.726Z,24.75
2019-05-18T12:42:46.132Z,25.10
2019-05-18T12:45:15.430Z,27.03
2019-05-18T12:47:45.193Z,26.60
2019-05-18T12:50:15.922Z,25.12
2019-05-18T12:52:44.357Z,23.87
2019-05-18T12:55:13.747Z,27.42
2019-05-18T12:57:42.186Z,26.25
2019-05-18T13:00:13.058Z,27.37
2019-05-18T13:02:41.553Z,25.43
2019-05-18T13:05:10.538Z,25.82
2019-05-18T13:07:39.646Z,25.05
2019-05-18T13:10:11.242Z,23.30
2019-05-18T13:12:40.726Z,24.20
2019-05-18T13:15:11.190Z,23.02
2019-05-18T13:17:39.707Z,23.07
2019-05-18T13:20:09.352Z,22.95
2019-05-18T13:22:37.759Z,24.52
2019-05-18T13:25:10.827Z,23.85
2019-05-18T13:27:40.243Z,24.90
2019-05-18T13:30:10.596Z,25.50
2019-05-18T13:32:39.307Z,25.68
2019-05-18T13:35:10.760Z,23.75
2019-05-18T13:37:39.193Z,23.90
2019-05-18T13:40:09.126Z,25.07
2019-05-18T13:42:38.507Z,23.92
2019-05-18T13:45:07.989Z,21.95
2019-05-18T13:47:36.401Z,21.95
2019-05-18T13:50:07.021Z,20.52
2019-05-18T13:52:40.052Z,21.17
2019-05-18T13:55:09.910Z,21.80
2019-05-18T13:57:38.345Z,20.77
2019-05-18T14:00:08.289Z,21.97
2019-05-18T14:02:42.270Z,20.85
2019-05-18T14:05:19.009Z,23.25
2019-05-18T14:07:47.499Z,21.40
2019-05-18T14:10:16.231Z,21.82
2019-05-18T14:12:44.681Z,23.67
2019-05-18T14:15:15.014Z,20.82
2019-05-18T14:17:43.420Z,20.60
2019-05-18T14:20:12.189Z,20.02
2019-05-18T14:22:40.594Z,19.25
2019-05-18T14:25:19.396Z,17.95
2019-05-18T14:27:40.793Z,18.60
2019-05-18T14:30:10.080Z,18.20
2019-05-18T14:32:39.552Z,19.82
2019-05-18T14:35:08.668Z,21.40
2019-05-18T14:37:37.133Z,20.70
2019-05-18T14:40:09.154Z,19.80
2019-05-18T14:42:37.621Z,19.42
2019-05-18T14:45:08.642Z,18.07
2019-05-18T14:47:37.090Z,17.77
2019-05-18T14:50:06.375Z,17.13
2019-05-18T14:52:34.772Z,16.32
2019-05-18T14:55:04.711Z,15.88
2019-05-18T14:57:33.323Z,17.30
2019-05-18T15:00:02.568Z,17.92
2019-05-18T15:02:31.625Z,18.70
2019-05-18T15:05:00.077Z,18.20
2019-05-18T15:07:28.459Z,17.85
2019-05-18T15:09:56.872Z,19.20
2019-05-18T15:12:25.297Z,19.98
2019-05-18T15:14:54.396Z,19.32
2019-05-18T15:17:22.853Z,18.23
2019-05-18T15:19:51.292Z,18.32
2019-05-18T15:22:19.802Z,18.50
2019-05-18T15:24:48.209Z,19.10
2019-05-18T15:27:16.648Z,19.60
2019-05-18T15:29:45.098Z,18.55
2019-05-18T15:32:13.525Z,17.90
2019-05-18T15:34:41.961Z,18.52
2019-05-18T15:37:10.365Z,17.05
2019-05-18T15:39:42.583Z,18.17
2019-05-18T15:44:38.643Z,18.32
2019-05-18T15:47:07.126Z,18.20
2019-05-18T15:49:35.638Z,17.93
2019-05-18T15:52:04.031Z,18.35
2019-05-18T15:54:36.173Z,18.93
2019-05-18T15:57:02.634Z,18.27
2019-05-18T15:59:31.109Z,19.07
2019-05-18T16:02:00.674Z,19.45
2019-05-18T16:04:29.097Z,18.57
2019-05-18T16:07:01.263Z,18.35
2019-05-18T16:09:29.678Z,18.77
2019-05-18T16:12:02.102Z,18.42
2019-05-18T16:14:30.530Z,18.43
2019-05-18T16:16:58.995Z,18.05
2019-05-18T16:19:34.766Z,18.73
2019-05-18T16:22:03.583Z,18.92
2019-05-18T16:24:33.239Z,18.37
2019-05-18T16:27:01.650Z,18.20
2019-05-18T16:29:30.089Z,18.50
2019-05-18T16:31:58.504Z,20.12
2019-05-18T16:34:26.910Z,19.77
2019-05-18T16:36:55.342Z,20.40
2019-05-18T16:39:23.794Z,20.75
2019-05-18T16:41:52.198Z,20.72
2019-05-18T16:44:20.633Z,20.52
2019-05-18T16:46:49.068Z,19.85
2019-05-18T16:49:19.442Z,21.48
2019-05-18T16:51:47.929Z,20.40
2019-05-18T16:54:16.335Z,21.97
2019-05-18T16:56:44.765Z,23.27
2019-05-18T16:59:13.224Z,22.67
2019-05-18T17:01:42.732Z,22.97
2019-05-18T17:04:11.200Z,23.77
2019-05-18T17:06:39.602Z,22.85
2019-05-18T17:09:08.124Z,23.00
2019-05-18T17:11:36.539Z,22.48
2019-05-18T17:14:05.038Z,21.68
2019-05-18T17:16:33.507Z,23.47
2019-05-18T17:19:05.965Z,21.95
2019-05-18T17:21:34.406Z,22.60
2019-05-18T17:24:02.826Z,23.55
2019-05-18T17:26:31.255Z,23.55
2019-05-18T17:28:59.676Z,23.73
2019-05-18T17:31:28.090Z,22.17
2019-05-18T17:33:59.409Z,22.30
2019-05-18T17:36:27.831Z,21.13
2019-05-18T17:38:56.272Z,23.62
2019-05-18T17:41:24.758Z,21.67
2019-05-18T17:43:53.177Z,21.62
2019-05-18T17:46:21.605Z,21.97
2019-05-18T17:48:50.027Z,22.35
2019-05-18T17:51:18.448Z,22.55
2019-05-18T17:53:46.886Z,22.42
2019-05-18T17:56:15.319Z,21.87
2019-05-18T17:58:43.735Z,21.07
2019-05-18T18:01:12.194Z,21.35
2019-05-18T18:03:44.751Z,21.07
2019-05-18T18:06:13.171Z,21.23
2019-05-18T18:08:41.593Z,20.25
2019-05-18T18:11:11.884Z,19.82
2019-05-18T18:13:40.309Z,18.82
2019-05-18T18:16:08.801Z,19.35
2019-05-18T18:18:38.285Z,18.75
2019-05-18T18:21:11.322Z,18.53
2019-05-18T18:23:39.912Z,18.40
2019-05-18T18:26:08.312Z,18.98
2019-05-18T18:28:36.735Z,17.90
2019-05-18T18:31:05.221Z,19.92
2019-05-18T18:33:33.703Z,20.05
2019-05-18T18:36:02.105Z,19.70
2019-05-18T18:38:32.912Z,21.12
2019-05-18T18:41:00.685Z,22.90
2019-05-18T18:43:31.620Z,24.18
2019-05-18T18:46:00.044Z,25.12
2019-05-18T18:48:28.489Z,24.18
2019-05-18T18:50:56.943Z,26.57
2019-05-18T18:53:25.414Z,26.55
2019-05-18T18:55:54.687Z,26.82
2019-05-18T18:58:23.094Z,26.48
2019-05-18T19:00:51.547Z,26.42
2019-05-18T19:03:19.967Z,26.45
2019-05-18T19:05:48.379Z,27.85
2019-05-18T19:08:16.839Z,25.90
2019-05-18T19:10:45.271Z,28.42
2019-05-18T19:13:13.684Z,28.05
2019-05-18T19:15:42.135Z,29.42
2019-05-18T19:18:10.563Z,28.85
2019-05-18T19:20:39.024Z,27.07
2019-05-18T19:23:07.608Z,27.90
2019-05-18T19:25:36.066Z,30.30
2019-05-18T19:28:04.472Z,31.77
2019-05-18T19:30:33.848Z,31.02
2019-05-18T19:33:02.328Z,31.27
2019-05-18T19:35:30.709Z,32.48
2019-05-18T19:37:59.114Z,33.38
2019-05-18T19:40:28.025Z,32.42
2019-05-18T19:42:56.448Z,32.15
2019-05-18T19:45:25.539Z,31.35
2019-05-18T19:47:53.983Z,35.63
2019-05-18T19:50:22.397Z,31.93
2019-05-18T19:52:50.825Z,34.00
2019-05-18T19:55:19.238Z,34.27
2019-05-18T19:57:47.652Z,33.83
2019-05-18T20:00:16.759Z,34.27
2019-05-18T20:02:47.831Z,35.00
2019-05-18T20:05:16.606Z,36.17
2019-05-18T20:07:45.049Z,36.13
2019-05-18T20:10:14.831Z,33.45
2019-05-18T20:12:43.857Z,34.08
2019-05-18T20:15:12.947Z,35.23
2019-05-18T20:17:41.450Z,35.73
2019-05-18T20:20:11.772Z,35.43
2019-05-18T20:22:42.744Z,37.00
2019-05-18T20:25:11.470Z,34.60
2019-05-18T20:27:39.894Z,35.40
2019-05-18T20:30:10.454Z,35.50
2019-05-18T20:32:39.030Z,33.58
2019-05-18T20:35:07.744Z,35.27
2019-05-18T20:37:36.200Z,37.98
2019-05-18T20:40:08.447Z,36.57
2019-05-18T20:42:37.645Z,35.03
2019-05-18T20:45:06.818Z,36.90
2019-05-18T20:47:35.306Z,37.15
2019-05-18T20:50:04.988Z,36.63
2019-05-18T20:52:33.391Z,37.28
2019-05-18T20:55:06.283Z,37.78
2019-05-18T20:57:34.739Z,37.63
2019-05-18T21:00:03.272Z,40.58
2019-05-18T21:02:32.486Z,39.58
2019-05-18T21:05:00.902Z,41.73
2019-05-18T21:07:29.319Z,41.40
2019-05-18T21:09:58.823Z,40.30
2019-05-18T21:12:27.253Z,40.33
2019-05-18T21:14:55.657Z,42.03
2019-05-18T21:17:24.165Z,43.38
2019-05-18T21:19:54.725Z,42.93
2019-05-18T21:22:23.137Z,40.58
2019-05-18T21:24:51.545Z,42.80
2019-05-18T21:27:20.470Z,42.38
2019-05-18T21:29:48.949Z,44.35
2019-05-18T21:32:24.545Z,45.48
2019-05-18T21:34:52.988Z,46.33
2019-05-18T21:37:21.407Z,48.42
2019-05-18T21:39:49.842Z,48.80
2019-05-18T21:42:20.718Z,50.03
2019-05-18T21:44:49.159Z,49.63
2019-05-18T21:47:18.497Z,49.48
2019-05-18T21:49:46.940Z,49.70
2019-05-18T21:52:18.286Z,51.98
2019-05-18T21:54:46.724Z,49.93
2019-05-18T21:57:15.191Z,51.53
2019-05-18T21:59:43.660Z,49.77
2019-05-18T22:02:12.302Z,49.08
2019-05-18T22:04:51.057Z,50.30
2019-05-18T22:07:19.270Z,51.18
2019-05-18T22:09:48.629Z,53.37
2019-05-18T22:12:17.034Z,53.48
2019-05-18T22:14:45.491Z,53.48
2019-05-18T22:17:13.909Z,51.65
2019-05-18T22:19:43.457Z,50.83
2019-05-18T22:22:12.822Z,51.95
2019-05-18T22:24:42.257Z,49.73
2019-05-18T22:27:10.721Z,52.48
2019-05-18T22:29:41.929Z,55.70
2019-05-18T22:32:10.362Z,57.45
2019-05-18T22:34:41.916Z,57.45
2019-05-18T22:37:08.971Z,61.23
2019-05-18T22:39:42.461Z,59.00
2019-05-18T22:42:11.442Z,55.95
2019-05-18T22:44:39.875Z,56.50
2019-05-18T22:47:09.112Z,53.28
2019-05-18T22:49:41.034Z,54.05
2019-05-18T22:52:09.485Z,53.48
2019-05-18T22:54:39.004Z,52.83
2019-05-18T22:57:07.448Z,52.95
2019-05-18T22:59:35.882Z,52.83
2019-05-18T23:02:06.306Z,52.00
2019-05-18T23:04:38.580Z,49.50
2019-05-18T23:07:11.956Z,48.17
2019-05-18T23:09:40.397Z,49.88
2019-05-18T23:12:19.895Z,50.15
2019-05-18T23:14:48.655Z,46.40
2019-05-18T23:17:18.193Z,44.70
2019-05-18T23:19:46.613Z,38.43
2019-05-18T23:22:15.157Z,35.43
2019-05-18T23:24:43.606Z,35.00
2019-05-18T23:27:12.010Z,36.90
2019-05-18T23:29:43.184Z,36.90
2019-05-18T23:32:11.540Z,36.20
2019-05-18T23:34:40.007Z,37.23
2019-05-18T23:37:08.416Z,36.73
2019-05-18T23:39:36.879Z,35.60
2019-05-18T23:42:05.483Z,33.08
2019-05-18T23:44:34.956Z,34.43
2019-05-18T23:47:05.928Z,32.88
2019-05-18T23:49:34.374Z,33.10
2019-05-18T23:52:02.836Z,31.70
2019-05-18T23:54:31.279Z,32.27
2019-05-18T23:56:59.711Z,31.60
2019-05-18T23:59:28.172Z,31.87
